X  Close Metar Aviation Weather Data     CYZE Gore Bay Manitoulin Airport
Temperature
-1°C Temperature
-6°C Dewpoint
69% Humidity



Wind
21 KM/H
13 MPH
6 M/S
11 KTS



210°
SSW
Current Conditions

Mostly Cloudy Mostly Cloudy
Pressure 1006.1 (hPa) - 29.71 (inHg)
Visibility 9 (mile) - 14.5 (km)
Airport
Airport-code CYZE

Location: Gore Bay Manitoulin Airport
Distance: 50 (km)

Metar:
CYZE 251200Z AUTO 21011G17KT 9SM BKN055 OVC100 M01/M06 A2971 RMK SLP072

Time: 02-25-2024 12:00 EST